Indian Rock, Texas
Current Conditions -  °F | °C
As of 7:15 AM on Sunday 21 Dec 2014 (Local Time) from KOSA Reporting Station
Overcast Overcast  
Wind Chill: 43°   Ceiling: 4000
Heat Index: 43°   Visibility: 5mi
Dew Point: 42°   Wind: 0mph
Humidity: 96%   Direction: NA
Pressure: 30.17"   Gusts: NA
Location:  32.7353°N, 94.9492°W
Report Text: KOSA 211315Z AUTO 00000KT 5SM OVC040 06/06 A3017 RMK AO1 T00630057
Loading
Personal Weather Stations






























Interactive Weather Map New forecast layout! Learn more

10-Day Weather Forecast

Advertisements
Track Severe Weather on mobile